sensor_id;sensor_type;location;lat;lon;timestamp;temperature;humidity
58993;DHT22;44782;0.000;0.000;2023-01-04T00:00:10;17.30;59.60
58993;DHT22;44782;0.000;0.000;2023-01-04T00:02:27;17.30;59.60
58993;DHT22;44782;0.000;0.000;2023-01-04T00:04:42;17.30;60.30
58993;DHT22;44782;0.000;0.000;2023-01-04T00:06:58;17.20;59.50
58993;DHT22;44782;0.000;0.000;2023-01-04T00:09:14;17.20;59.50
58993;DHT22;44782;0.000;0.000;2023-01-04T00:11:29;17.30;59.60
58993;DHT22;44782;0.000;0.000;2023-01-04T00:13:46;17.30;59.60
58993;DHT22;44782;0.000;0.000;2023-01-04T00:16:08;17.30;59.50
58993;DHT22;44782;0.000;0.000;2023-01-04T00:18:23;17.30;59.40
58993;DHT22;44782;0.000;0.000;2023-01-04T00:20:39;17.30;59.50
58993;DHT22;44782;0.000;0.000;2023-01-04T00:22:55;17.20;59.40
58993;DHT22;44782;0.000;0.000;2023-01-04T00:25:10;17.20;59.40
58993;DHT22;44782;0.000;0.000;2023-01-04T00:27:26;17.20;59.50
58993;DHT22;44782;0.000;0.000;2023-01-04T00:29:42;17.20;59.50
58993;DHT22;44782;0.000;0.000;2023-01-04T00:31:57;17.20;59.50
58993;DHT22;44782;0.000;0.000;2023-01-04T00:34:14;17.20;59.50
58993;DHT22;44782;0.000;0.000;2023-01-04T00:36:31;17.20;59.40
58993;DHT22;44782;0.000;0.000;2023-01-04T00:38:47;17.20;59.40
58993;DHT22;44782;0.000;0.000;2023-01-04T00:41:21;17.20;59.40
58993;DHT22;44782;0.000;0.000;2023-01-04T00:43:36;17.20;59.40
58993;DHT22;44782;0.000;0.000;2023-01-04T00:45:52;17.20;59.40
58993;DHT22;44782;0.000;0.000;2023-01-04T00:48:08;17.20;59.40
58993;DHT22;44782;0.000;0.000;2023-01-04T00:50:23;17.20;59.30
58993;DHT22;44782;0.000;0.000;2023-01-04T00:52:39;17.20;59.30
58993;DHT22;44782;0.000;0.000;2023-01-04T00:54:55;17.10;59.40
58993;DHT22;44782;0.000;0.000;2023-01-04T00:57:10;17.10;59.30
58993;DHT22;44782;0.000;0.000;2023-01-04T00:59:26;17.10;59.30
58993;DHT22;44782;0.000;0.000;2023-01-04T01:01:42;17.10;59.30
58993;DHT22;44782;0.000;0.000;2023-01-04T01:04:00;17.10;59.20
58993;DHT22;44782;0.000;0.000;2023-01-04T01:06:16;17.10;59.20
58993;DHT22;44782;0.000;0.000;2023-01-04T01:08:34;17.10;59.20
58993;DHT22;44782;0.000;0.000;2023-01-04T01:10:50;17.00;59.20
58993;DHT22;44782;0.000;0.000;2023-01-04T01:13:06;17.10;59.20
58993;DHT22;44782;0.000;0.000;2023-01-04T01:15:24;17.00;59.10
58993;DHT22;44782;0.000;0.000;2023-01-04T01:17:40;17.00;59.10
58993;DHT22;44782;0.000;0.000;2023-01-04T01:19:55;17.00;59.20
58993;DHT22;44782;0.000;0.000;2023-01-04T01:22:11;17.00;59.10
58993;DHT22;44782;0.000;0.000;2023-01-04T01:24:27;17.00;59.20
58993;DHT22;44782;0.000;0.000;2023-01-04T01:26:42;16.90;59.10
58993;DHT22;44782;0.000;0.000;2023-01-04T01:28:58;17.00;59.20
58993;DHT22;44782;0.000;0.000;2023-01-04T01:31:25;17.00;59.20
58993;DHT22;44782;0.000;0.000;2023-01-04T01:33:43;17.00;59.10
58993;DHT22;44782;0.000;0.000;2023-01-04T01:36:00;16.90;59.10
58993;DHT22;44782;0.000;0.000;2023-01-04T01:38:16;16.90;59.20
58993;DHT22;44782;0.000;0.000;2023-01-04T01:40:32;16.90;59.20
58993;DHT22;44782;0.000;0.000;2023-01-04T01:42:47;16.90;59.20
58993;DHT22;44782;0.000;0.000;2023-01-04T01:45:06;16.90;59.20
58993;DHT22;44782;0.000;0.000;2023-01-04T01:47:41;16.90;59.20
58993;DHT22;44782;0.000;0.000;2023-01-04T01:49:57;16.90;59.10
58993;DHT22;44782;0.000;0.000;2023-01-04T01:52:34;16.90;59.30
58993;DHT22;44782;0.000;0.000;2023-01-04T01:54:59;16.90;59.00
58993;DHT22;44782;0.000;0.000;2023-01-04T01:57:21;16.80;59.20
58993;DHT22;44782;0.000;0.000;2023-01-04T01:59:41;16.80;59.20
58993;DHT22;44782;0.000;0.000;2023-01-04T02:01:57;16.80;59.20
58993;DHT22;44782;0.000;0.000;2023-01-04T02:04:13;16.80;59.30
58993;DHT22;44782;0.000;0.000;2023-01-04T02:06:37;16.80;59.30
58993;DHT22;44782;0.000;0.000;2023-01-04T02:08:54;16.80;59.20
58993;DHT22;44782;0.000;0.000;2023-01-04T02:11:10;16.80;59.30
58993;DHT22;44782;0.000;0.000;2023-01-04T02:13:29;16.80;59.30
58993;DHT22;44782;0.000;0.000;2023-01-04T02:18:57;16.80;59.20
58993;DHT22;44782;0.000;0.000;2023-01-04T02:21:22;16.80;59.40
58993;DHT22;44782;0.000;0.000;2023-01-04T02:24:02;16.70;59.30
58993;DHT22;44782;0.000;0.000;2023-01-04T02:26:37;16.80;59.30
58993;DHT22;44782;0.000;0.000;2023-01-04T02:31:58;16.80;59.30
58993;DHT22;44782;0.000;0.000;2023-01-04T02:42:27;16.70;59.30
58993;DHT22;44782;0.000;0.000;2023-01-04T02:45:06;16.70;59.30
58993;DHT22;44782;0.000;0.000;2023-01-04T02:47:29;16.70;59.50
58993;DHT22;44782;0.000;0.000;2023-01-04T02:52:45;16.70;59.40
58993;DHT22;44782;0.000;0.000;2023-01-04T02:55:02;16.70;59.50
58993;DHT22;44782;0.000;0.000;2023-01-04T02:57:31;16.70;59.40
58993;DHT22;44782;0.000;0.000;2023-01-04T03:02:44;16.70;59.30
58993;DHT22;44782;0.000;0.000;2023-01-04T03:05:40;16.70;59.30
58993;DHT22;44782;0.000;0.000;2023-01-04T03:10:40;16.60;59.60
58993;DHT22;44782;0.000;0.000;2023-01-04T03:13:20;16.60;59.50
58993;DHT22;44782;0.000;0.000;2023-01-04T03:15:38;16.60;59.40
58993;DHT22;44782;0.000;0.000;2023-01-04T03:17:58;16.60;59.50
58993;DHT22;44782;0.000;0.000;2023-01-04T03:20:17;16.60;59.50
58993;DHT22;44782;0.000;0.000;2023-01-04T03:22:46;16.60;59.50
58993;DHT22;44782;0.000;0.000;2023-01-04T03:25:28;16.60;59.40
58993;DHT22;44782;0.000;0.000;2023-01-04T03:28:05;16.60;59.50
58993;DHT22;44782;0.000;0.000;2023-01-04T03:30:50;16.60;59.60
58993;DHT22;44782;0.000;0.000;2023-01-04T03:33:25;16.60;59.50
58993;DHT22;44782;0.000;0.000;2023-01-04T03:36:17;16.60;59.60
58993;DHT22;44782;0.000;0.000;2023-01-04T03:39:07;16.60;59.60
58993;DHT22;44782;0.000;0.000;2023-01-04T03:41:47;16.60;59.50
58993;DHT22;44782;0.000;0.000;2023-01-04T03:44:28;16.50;59.60
58993;DHT22;44782;0.000;0.000;2023-01-04T03:47:09;16.50;59.60
58993;DHT22;44782;0.000;0.000;2023-01-04T03:49:48;16.50;59.60
58993;DHT22;44782;0.000;0.000;2023-01-04T03:52:12;16.50;59.60
58993;DHT22;44782;0.000;0.000;2023-01-04T03:54:35;16.50;59.60
58993;DHT22;44782;0.000;0.000;2023-01-04T03:56:52;16.50;59.60
58993;DHT22;44782;0.000;0.000;2023-01-04T03:59:09;16.50;59.60
58993;DHT22;44782;0.000;0.000;2023-01-04T04:01:26;16.50;59.60
58993;DHT22;44782;0.000;0.000;2023-01-04T04:03:42;16.50;59.60
58993;DHT22;44782;0.000;0.000;2023-01-04T04:06:16;16.50;59.60
58993;DHT22;44782;0.000;0.000;2023-01-04T04:08:50;16.50;59.60
58993;DHT22;44782;0.000;0.000;2023-01-04T04:11:06;16.50;59.60
58993;DHT22;44782;0.000;0.000;2023-01-04T04:13:40;16.50;59.60
58993;DHT22;44782;0.000;0.000;2023-01-04T04:15:56;16.50;59.70
58993;DHT22;44782;0.000;0.000;2023-01-04T04:18:12;16.50;59.60
58993;DHT22;44782;0.000;0.000;2023-01-04T04:20:27;16.50;59.70
58993;DHT22;44782;0.000;0.000;2023-01-04T04:22:43;16.50;59.70
58993;DHT22;44782;0.000;0.000;2023-01-04T04:24:59;16.50;59.60
58993;DHT22;44782;0.000;0.000;2023-01-04T04:27:15;16.50;59.70
58993;DHT22;44782;0.000;0.000;2023-01-04T04:29:30;16.50;59.70
58993;DHT22;44782;0.000;0.000;2023-01-04T04:31:46;16.50;59.70
58993;DHT22;44782;0.000;0.000;2023-01-04T04:34:02;16.50;59.60
58993;DHT22;44782;0.000;0.000;2023-01-04T04:36:18;16.50;59.70
58993;DHT22;44782;0.000;0.000;2023-01-04T04:38:34;16.40;59.60
58993;DHT22;44782;0.000;0.000;2023-01-04T04:40:50;16.50;59.70
58993;DHT22;44782;0.000;0.000;2023-01-04T04:43:24;16.50;59.70
58993;DHT22;44782;0.000;0.000;2023-01-04T04:45:40;16.50;59.70
58993;DHT22;44782;0.000;0.000;2023-01-04T04:47:56;16.50;59.70
58993;DHT22;44782;0.000;0.000;2023-01-04T04:50:12;16.40;59.60
58993;DHT22;44782;0.000;0.000;2023-01-04T04:52:27;16.50;59.70
58993;DHT22;44782;0.000;0.000;2023-01-04T04:54:43;16.40;59.60
58993;DHT22;44782;0.000;0.000;2023-01-04T04:56:59;16.40;59.60
58993;DHT22;44782;0.000;0.000;2023-01-04T04:59:15;16.40;59.60
58993;DHT22;44782;0.000;0.000;2023-01-04T05:01:32;16.40;59.60
58993;DHT22;44782;0.000;0.000;2023-01-04T05:03:47;16.40;59.70
58993;DHT22;44782;0.000;0.000;2023-01-04T05:06:04;16.40;59.70
58993;DHT22;44782;0.000;0.000;2023-01-04T05:10:39;16.40;59.70
58993;DHT22;44782;0.000;0.000;2023-01-04T05:12:54;16.40;59.80
58993;DHT22;44782;0.000;0.000;2023-01-04T05:15:16;16.40;59.80
58993;DHT22;44782;0.000;0.000;2023-01-04T05:17:31;16.40;59.80
58993;DHT22;44782;0.000;0.000;2023-01-04T05:19:47;16.50;60.00
58993;DHT22;44782;0.000;0.000;2023-01-04T05:22:03;16.50;59.90
58993;DHT22;44782;0.000;0.000;2023-01-04T05:24:18;16.50;60.00
58993;DHT22;44782;0.000;0.000;2023-01-04T05:26:34;16.60;60.00
58993;DHT22;44782;0.000;0.000;2023-01-04T05:28:49;16.60;59.90
58993;DHT22;44782;0.000;0.000;2023-01-04T05:31:05;16.60;59.90
58993;DHT22;44782;0.000;0.000;2023-01-04T05:33:28;16.70;60.00
58993;DHT22;44782;0.000;0.000;2023-01-04T05:35:44;16.70;60.20
58993;DHT22;44782;0.000;0.000;2023-01-04T05:38:00;16.80;60.20
58993;DHT22;44782;0.000;0.000;2023-01-04T05:40:16;16.80;60.20
58993;DHT22;44782;0.000;0.000;2023-01-04T05:42:31;16.90;60.20
58993;DHT22;44782;0.000;0.000;2023-01-04T05:44:47;16.90;60.10
58993;DHT22;44782;0.000;0.000;2023-01-04T05:47:03;16.90;60.00
58993;DHT22;44782;0.000;0.000;2023-01-04T05:49:18;16.90;59.90
58993;DHT22;44782;0.000;0.000;2023-01-04T05:51:34;17.00;60.00
58993;DHT22;44782;0.000;0.000;2023-01-04T05:53:49;17.00;59.90
58993;DHT22;44782;0.000;0.000;2023-01-04T05:56:05;17.10;59.80
58993;DHT22;44782;0.000;0.000;2023-01-04T05:58:21;17.10;59.80
58993;DHT22;44782;0.000;0.000;2023-01-04T06:00:37;17.10;59.70
58993;DHT22;44782;0.000;0.000;2023-01-04T06:02:52;17.20;59.80
58993;DHT22;44782;0.000;0.000;2023-01-04T06:05:10;17.20;59.70
58993;DHT22;44782;0.000;0.000;2023-01-04T06:07:27;17.20;59.70
58993;DHT22;44782;0.000;0.000;2023-01-04T06:09:44;17.20;59.60
58993;DHT22;44782;0.000;0.000;2023-01-04T06:12:00;17.20;59.60
58993;DHT22;44782;0.000;0.000;2023-01-04T06:14:15;17.20;59.60
58993;DHT22;44782;0.000;0.000;2023-01-04T06:16:31;17.20;60.20
58993;DHT22;44782;0.000;0.000;2023-01-04T06:18:47;17.20;59.50
58993;DHT22;44782;0.000;0.000;2023-01-04T06:21:02;17.20;59.50
58993;DHT22;44782;0.000;0.000;2023-01-04T06:23:18;17.30;59.50
58993;DHT22;44782;0.000;0.000;2023-01-04T06:25:34;17.30;59.50
58993;DHT22;44782;0.000;0.000;2023-01-04T06:27:49;17.30;59.50
58993;DHT22;44782;0.000;0.000;2023-01-04T06:30:05;17.30;59.50
58993;DHT22;44782;0.000;0.000;2023-01-04T06:32:21;17.20;59.50
58993;DHT22;44782;0.000;0.000;2023-01-04T06:34:37;17.30;59.50
58993;DHT22;44782;0.000;0.000;2023-01-04T06:36:52;17.30;59.50
58993;DHT22;44782;0.000;0.000;2023-01-04T06:39:08;17.30;59.50
58993;DHT22;44782;0.000;0.000;2023-01-04T06:41:25;17.30;59.50
58993;DHT22;44782;0.000;0.000;2023-01-04T06:43:41;17.20;59.40
58993;DHT22;44782;0.000;0.000;2023-01-04T06:45:56;17.20;59.40
58993;DHT22;44782;0.000;0.000;2023-01-04T06:48:12;17.30;59.50
58993;DHT22;44782;0.000;0.000;2023-01-04T06:50:28;17.20;59.40
58993;DHT22;44782;0.000;0.000;2023-01-04T06:52:43;17.20;59.40
58993;DHT22;44782;0.000;0.000;2023-01-04T06:54:59;17.20;59.50
58993;DHT22;44782;0.000;0.000;2023-01-04T06:57:14;17.20;59.40
58993;DHT22;44782;0.000;0.000;2023-01-04T06:59:30;17.20;59.50
58993;DHT22;44782;0.000;0.000;2023-01-04T07:01:46;17.20;59.40
58993;DHT22;44782;0.000;0.000;2023-01-04T07:04:01;17.20;59.50
58993;DHT22;44782;0.000;0.000;2023-01-04T07:06:17;17.20;59.50
58993;DHT22;44782;0.000;0.000;2023-01-04T07:08:33;17.20;59.50
58993;DHT22;44782;0.000;0.000;2023-01-04T07:10:50;17.20;59.50
58993;DHT22;44782;0.000;0.000;2023-01-04T07:13:06;17.10;59.50
58993;DHT22;44782;0.000;0.000;2023-01-04T07:15:22;17.10;59.50
58993;DHT22;44782;0.000;0.000;2023-01-04T07:17:38;17.10;59.60
58993;DHT22;44782;0.000;0.000;2023-01-04T07:19:54;17.10;59.70
58993;DHT22;44782;0.000;0.000;2023-01-04T07:22:10;17.10;59.90
58993;DHT22;44782;0.000;0.000;2023-01-04T07:24:25;17.10;59.90
58993;DHT22;44782;0.000;0.000;2023-01-04T07:26:41;17.10;60.00
58993;DHT22;44782;0.000;0.000;2023-01-04T07:28:56;17.10;60.10
58993;DHT22;44782;0.000;0.000;2023-01-04T07:31:31;17.10;60.30
58993;DHT22;44782;0.000;0.000;2023-01-04T07:33:48;17.00;60.30
58993;DHT22;44782;0.000;0.000;2023-01-04T07:36:05;17.00;60.50
58993;DHT22;44782;0.000;0.000;2023-01-04T07:38:21;17.00;60.50
58993;DHT22;44782;0.000;0.000;2023-01-04T07:40:37;17.00;60.60
58993;DHT22;44782;0.000;0.000;2023-01-04T07:42:56;17.00;60.70
58993;DHT22;44782;0.000;0.000;2023-01-04T07:45:12;17.00;60.70
58993;DHT22;44782;0.000;0.000;2023-01-04T07:47:27;17.00;60.80
58993;DHT22;44782;0.000;0.000;2023-01-04T07:49:43;17.00;60.80
58993;DHT22;44782;0.000;0.000;2023-01-04T07:51:59;17.00;60.90
58993;DHT22;44782;0.000;0.000;2023-01-04T07:54:18;17.00;61.00
58993;DHT22;44782;0.000;0.000;2023-01-04T07:56:33;16.90;61.00
58993;DHT22;44782;0.000;0.000;2023-01-04T07:58:49;17.00;61.10
58993;DHT22;44782;0.000;0.000;2023-01-04T08:01:10;16.90;61.10
58993;DHT22;44782;0.000;0.000;2023-01-04T08:03:25;16.90;61.20
58993;DHT22;44782;0.000;0.000;2023-01-04T08:05:41;16.90;61.20
58993;DHT22;44782;0.000;0.000;2023-01-04T08:07:57;16.90;61.20
58993;DHT22;44782;0.000;0.000;2023-01-04T08:10:12;16.90;61.20
58993;DHT22;44782;0.000;0.000;2023-01-04T08:12:28;16.90;61.30
58993;DHT22;44782;0.000;0.000;2023-01-04T08:14:44;16.90;61.30
58993;DHT22;44782;0.000;0.000;2023-01-04T08:16:59;16.90;61.30
58993;DHT22;44782;0.000;0.000;2023-01-04T08:19:20;16.90;61.30
58993;DHT22;44782;0.000;0.000;2023-01-04T08:21:35;16.90;61.50
58993;DHT22;44782;0.000;0.000;2023-01-04T08:23:52;16.90;61.50
58993;DHT22;44782;0.000;0.000;2023-01-04T08:26:10;16.90;61.50
58993;DHT22;44782;0.000;0.000;2023-01-04T08:28:26;16.90;61.50
58993;DHT22;44782;0.000;0.000;2023-01-04T08:30:41;16.90;61.50
58993;DHT22;44782;0.000;0.000;2023-01-04T08:32:57;16.90;61.60
58993;DHT22;44782;0.000;0.000;2023-01-04T08:35:13;16.90;61.60
58993;DHT22;44782;0.000;0.000;2023-01-04T08:37:28;16.90;61.50
58993;DHT22;44782;0.000;0.000;2023-01-04T08:39:46;16.90;61.60
58993;DHT22;44782;0.000;0.000;2023-01-04T08:42:02;16.90;61.70
58993;DHT22;44782;0.000;0.000;2023-01-04T08:44:22;16.90;61.80
58993;DHT22;44782;0.000;0.000;2023-01-04T08:46:38;16.90;62.00
58993;DHT22;44782;0.000;0.000;2023-01-04T08:48:54;16.90;62.20
58993;DHT22;44782;0.000;0.000;2023-01-04T08:51:13;16.90;62.20
58993;DHT22;44782;0.000;0.000;2023-01-04T08:53:28;16.90;62.40
58993;DHT22;44782;0.000;0.000;2023-01-04T08:55:51;16.90;62.40
58993;DHT22;44782;0.000;0.000;2023-01-04T08:58:07;16.90;62.60
58993;DHT22;44782;0.000;0.000;2023-01-04T09:00:22;16.80;62.40
58993;DHT22;44782;0.000;0.000;2023-01-04T09:02:38;16.80;62.50
58993;DHT22;44782;0.000;0.000;2023-01-04T09:04:54;16.80;62.60
58993;DHT22;44782;0.000;0.000;2023-01-04T09:07:15;16.90;62.60
58993;DHT22;44782;0.000;0.000;2023-01-04T09:09:30;16.80;62.60
58993;DHT22;44782;0.000;0.000;2023-01-04T09:11:46;16.80;62.70
58993;DHT22;44782;0.000;0.000;2023-01-04T09:14:02;16.90;62.70
58993;DHT22;44782;0.000;0.000;2023-01-04T09:16:19;16.80;62.70
58993;DHT22;44782;0.000;0.000;2023-01-04T09:18:34;16.80;62.70
58993;DHT22;44782;0.000;0.000;2023-01-04T09:20:50;16.80;62.60
58993;DHT22;44782;0.000;0.000;2023-01-04T09:23:06;16.80;62.60
58993;DHT22;44782;0.000;0.000;2023-01-04T09:25:21;16.80;62.60
58993;DHT22;44782;0.000;0.000;2023-01-04T09:27:37;16.80;62.60
58993;DHT22;44782;0.000;0.000;2023-01-04T09:29:54;16.80;62.60
58993;DHT22;44782;0.000;0.000;2023-01-04T09:32:10;16.80;62.50
58993;DHT22;44782;0.000;0.000;2023-01-04T09:34:25;16.80;62.50
58993;DHT22;44782;0.000;0.000;2023-01-04T09:36:41;16.80;62.50
58993;DHT22;44782;0.000;0.000;2023-01-04T09:38:57;16.80;62.40
58993;DHT22;44782;0.000;0.000;2023-01-04T09:41:14;16.80;62.40
58993;DHT22;44782;0.000;0.000;2023-01-04T09:43:47;16.80;62.40
58993;DHT22;44782;0.000;0.000;2023-01-04T09:46:06;16.80;62.40
58993;DHT22;44782;0.000;0.000;2023-01-04T09:48:26;16.80;62.40
58993;DHT22;44782;0.000;0.000;2023-01-04T09:50:53;16.80;62.30
58993;DHT22;44782;0.000;0.000;2023-01-04T09:55:47;16.80;62.20
58993;DHT22;44782;0.000;0.000;2023-01-04T09:58:12;16.80;62.20
58993;DHT22;44782;0.000;0.000;2023-01-04T10:00:36;16.80;62.20
58993;DHT22;44782;0.000;0.000;2023-01-04T10:03:10;16.70;62.10
58993;DHT22;44782;0.000;0.000;2023-01-04T10:05:30;16.70;62.10
58993;DHT22;44782;0.000;0.000;2023-01-04T10:07:46;16.80;62.10
58993;DHT22;44782;0.000;0.000;2023-01-04T10:10:04;16.70;62.00
58993;DHT22;44782;0.000;0.000;2023-01-04T10:12:31;16.70;62.00
58993;DHT22;44782;0.000;0.000;2023-01-04T10:18:03;16.70;61.80
58993;DHT22;44782;0.000;0.000;2023-01-04T10:33:13;16.70;61.90
58993;DHT22;44782;0.000;0.000;2023-01-04T10:35:32;16.70;61.90
58993;DHT22;44782;0.000;0.000;2023-01-04T10:38:00;16.70;61.80
58993;DHT22;44782;0.000;0.000;2023-01-04T10:40:17;16.70;61.80
58993;DHT22;44782;0.000;0.000;2023-01-04T10:42:36;16.60;61.80
58993;DHT22;44782;0.000;0.000;2023-01-04T10:44:55;16.70;61.80
58993;DHT22;44782;0.000;0.000;2023-01-04T10:47:58;16.70;61.80
58993;DHT22;44782;0.000;0.000;2023-01-04T10:50:04;16.70;61.80
58993;DHT22;44782;0.000;0.000;2023-01-04T10:52:53;16.60;61.90
58993;DHT22;44782;0.000;0.000;2023-01-04T11:00:50;16.60;61.70
58993;DHT22;44782;0.000;0.000;2023-01-04T11:05:46;16.60;61.60
58993;DHT22;44782;0.000;0.000;2023-01-04T11:10:35;16.60;61.70
58993;DHT22;44782;0.000;0.000;2023-01-04T11:12:52;16.60;61.70
58993;DHT22;44782;0.000;0.000;2023-01-04T11:15:08;16.60;61.70
58993;DHT22;44782;0.000;0.000;2023-01-04T11:17:24;16.60;61.70
58993;DHT22;44782;0.000;0.000;2023-01-04T11:19:40;16.60;61.70
58993;DHT22;44782;0.000;0.000;2023-01-04T11:22:00;16.60;61.70
58993;DHT22;44782;0.000;0.000;2023-01-04T11:24:20;16.60;61.60
58993;DHT22;44782;0.000;0.000;2023-01-04T11:26:37;16.60;61.70
58993;DHT22;44782;0.000;0.000;2023-01-04T11:29:05;16.60;61.70
58993;DHT22;44782;0.000;0.000;2023-01-04T11:33:58;16.60;61.70
58993;DHT22;44782;0.000;0.000;2023-01-04T11:38:54;16.60;62.00
58993;DHT22;44782;0.000;0.000;2023-01-04T11:41:15;16.60;62.00
58993;DHT22;44782;0.000;0.000;2023-01-04T11:43:35;16.60;62.10
58993;DHT22;44782;0.000;0.000;2023-01-04T11:45:53;16.60;62.10
58993;DHT22;44782;0.000;0.000;2023-01-04T11:48:14;16.60;62.10
58993;DHT22;44782;0.000;0.000;2023-01-04T11:50:40;16.60;62.20
58993;DHT22;44782;0.000;0.000;2023-01-04T11:52:56;16.60;62.20
58993;DHT22;44782;0.000;0.000;2023-01-04T11:57:31;16.60;62.20
58993;DHT22;44782;0.000;0.000;2023-01-04T12:00:07;16.60;62.20
58993;DHT22;44782;0.000;0.000;2023-01-04T12:02:25;16.60;62.40
58993;DHT22;44782;0.000;0.000;2023-01-04T12:04:40;16.60;62.40
58993;DHT22;44782;0.000;0.000;2023-01-04T12:07:01;16.60;62.40
58993;DHT22;44782;0.000;0.000;2023-01-04T12:09:20;16.60;62.30
58993;DHT22;44782;0.000;0.000;2023-01-04T12:11:39;16.60;62.30
58993;DHT22;44782;0.000;0.000;2023-01-04T12:13:59;16.60;62.30
58993;DHT22;44782;0.000;0.000;2023-01-04T12:18:47;16.60;62.30
58993;DHT22;44782;0.000;0.000;2023-01-04T12:21:03;16.60;63.10
58993;DHT22;44782;0.000;0.000;2023-01-04T12:23:19;16.60;62.20
58993;DHT22;44782;0.000;0.000;2023-01-04T12:25:43;16.60;62.30
58993;DHT22;44782;0.000;0.000;2023-01-04T12:28:00;16.60;62.20
58993;DHT22;44782;0.000;0.000;2023-01-04T12:32:50;16.60;62.20
58993;DHT22;44782;0.000;0.000;2023-01-04T12:37:59;16.60;62.20
58993;DHT22;44782;0.000;0.000;2023-01-04T12:45:29;16.60;62.30
58993;DHT22;44782;0.000;0.000;2023-01-04T12:47:45;16.50;62.20
58993;DHT22;44782;0.000;0.000;2023-01-04T12:50:22;16.50;62.20
58993;DHT22;44782;0.000;0.000;2023-01-04T12:54:58;16.50;62.20
58993;DHT22;44782;0.000;0.000;2023-01-04T13:02:45;16.50;62.20
58993;DHT22;44782;0.000;0.000;2023-01-04T13:07:58;16.50;62.20
58993;DHT22;44782;0.000;0.000;2023-01-04T13:15:12;16.50;62.20
58993;DHT22;44782;0.000;0.000;2023-01-04T13:17:30;16.50;62.20
58993;DHT22;44782;0.000;0.000;2023-01-04T13:19:52;16.50;62.20
58993;DHT22;44782;0.000;0.000;2023-01-04T13:22:18;16.50;62.20
58993;DHT22;44782;0.000;0.000;2023-01-04T13:24:34;16.50;62.20
58993;DHT22;44782;0.000;0.000;2023-01-04T13:26:51;16.50;62.20
58993;DHT22;44782;0.000;0.000;2023-01-04T13:29:12;16.50;62.20
58993;DHT22;44782;0.000;0.000;2023-01-04T13:31:28;16.50;62.20
58993;DHT22;44782;0.000;0.000;2023-01-04T13:33:45;16.50;62.20
58993;DHT22;44782;0.000;0.000;2023-01-04T13:36:08;16.50;62.20
58993;DHT22;44782;0.000;0.000;2023-01-04T13:38:25;16.50;62.20
58993;DHT22;44782;0.000;0.000;2023-01-04T13:40:45;16.50;62.20
58993;DHT22;44782;0.000;0.000;2023-01-04T13:43:30;16.50;62.20
58993;DHT22;44782;0.000;0.000;2023-01-04T13:46:28;16.50;62.20
58993;DHT22;44782;0.000;0.000;2023-01-04T13:48:44;16.50;62.40
58993;DHT22;44782;0.000;0.000;2023-01-04T13:51:23;16.50;62.30
58993;DHT22;44782;0.000;0.000;2023-01-04T13:53:40;16.50;62.20
58993;DHT22;44782;0.000;0.000;2023-01-04T13:56:00;16.50;62.20
58993;DHT22;44782;0.000;0.000;2023-01-04T13:58:19;16.50;62.20
58993;DHT22;44782;0.000;0.000;2023-01-04T14:05:44;16.50;62.20
58993;DHT22;44782;0.000;0.000;2023-01-04T14:08:01;16.50;62.20
58993;DHT22;44782;0.000;0.000;2023-01-04T14:10:18;16.50;62.20
58993;DHT22;44782;0.000;0.000;2023-01-04T14:12:33;16.50;62.30
58993;DHT22;44782;0.000;0.000;2023-01-04T14:14:55;16.50;62.20
58993;DHT22;44782;0.000;0.000;2023-01-04T14:19:55;16.50;62.30
58993;DHT22;44782;0.000;0.000;2023-01-04T14:24:35;16.50;62.30
58993;DHT22;44782;0.000;0.000;2023-01-04T14:26:51;16.50;62.30
58993;DHT22;44782;0.000;0.000;2023-01-04T14:29:20;16.50;62.30
58993;DHT22;44782;0.000;0.000;2023-01-04T14:31:36;16.50;62.30
58993;DHT22;44782;0.000;0.000;2023-01-04T14:33:52;16.50;62.40
58993;DHT22;44782;0.000;0.000;2023-01-04T14:38:24;16.50;62.30
58993;DHT22;44782;0.000;0.000;2023-01-04T14:40:40;16.50;62.30
58993;DHT22;44782;0.000;0.000;2023-01-04T14:42:56;16.50;62.30
58993;DHT22;44782;0.000;0.000;2023-01-04T14:45:12;16.50;62.30
58993;DHT22;44782;0.000;0.000;2023-01-04T14:47:28;16.50;62.30
58993;DHT22;44782;0.000;0.000;2023-01-04T14:49:43;16.50;62.30
58993;DHT22;44782;0.000;0.000;2023-01-04T14:52:02;16.50;62.40
58993;DHT22;44782;0.000;0.000;2023-01-04T14:54:18;16.50;62.30
58993;DHT22;44782;0.000;0.000;2023-01-04T14:56:34;16.50;62.40
58993;DHT22;44782;0.000;0.000;2023-01-04T14:58:50;16.50;62.40
58993;DHT22;44782;0.000;0.000;2023-01-04T15:01:05;16.50;62.40
58993;DHT22;44782;0.000;0.000;2023-01-04T15:03:24;16.50;62.40
58993;DHT22;44782;0.000;0.000;2023-01-04T15:05:42;16.50;62.40
58993;DHT22;44782;0.000;0.000;2023-01-04T15:07:59;16.50;62.40
58993;DHT22;44782;0.000;0.000;2023-01-04T15:10:24;16.50;62.40
58993;DHT22;44782;0.000;0.000;2023-01-04T15:12:41;16.50;62.40
58993;DHT22;44782;0.000;0.000;2023-01-04T15:14:56;16.40;62.30
58993;DHT22;44782;0.000;0.000;2023-01-04T15:17:12;16.50;62.50
58993;DHT22;44782;0.000;0.000;2023-01-04T15:19:27;16.40;62.40
58993;DHT22;44782;0.000;0.000;2023-01-04T15:21:43;16.40;62.40
58993;DHT22;44782;0.000;0.000;2023-01-04T15:23:59;16.40;62.40
58993;DHT22;44782;0.000;0.000;2023-01-04T15:26:14;16.40;62.40
58993;DHT22;44782;0.000;0.000;2023-01-04T15:28:30;16.40;62.40
58993;DHT22;44782;0.000;0.000;2023-01-04T15:30:46;16.40;62.50
58993;DHT22;44782;0.000;0.000;2023-01-04T15:33:04;16.40;62.60
58993;DHT22;44782;0.000;0.000;2023-01-04T15:35:23;16.40;62.50
58993;DHT22;44782;0.000;0.000;2023-01-04T15:37:38;16.40;62.50
58993;DHT22;44782;0.000;0.000;2023-01-04T15:39:54;16.40;62.50
58993;DHT22;44782;0.000;0.000;2023-01-04T15:42:10;16.40;62.50
58993;DHT22;44782;0.000;0.000;2023-01-04T15:44:44;16.40;62.50
58993;DHT22;44782;0.000;0.000;2023-01-04T15:47:00;16.40;62.60
58993;DHT22;44782;0.000;0.000;2023-01-04T15:49:16;16.40;62.60
58993;DHT22;44782;0.000;0.000;2023-01-04T15:51:31;16.40;62.50
58993;DHT22;44782;0.000;0.000;2023-01-04T15:53:51;16.40;62.60
58993;DHT22;44782;0.000;0.000;2023-01-04T15:56:11;16.40;62.60
58993;DHT22;44782;0.000;0.000;2023-01-04T15:58:27;16.40;62.60
58993;DHT22;44782;0.000;0.000;2023-01-04T16:00:42;16.40;62.60
58993;DHT22;44782;0.000;0.000;2023-01-04T16:02:58;16.40;62.60
58993;DHT22;44782;0.000;0.000;2023-01-04T16:05:14;16.40;62.70
58993;DHT22;44782;0.000;0.000;2023-01-04T16:07:31;16.40;62.70
58993;DHT22;44782;0.000;0.000;2023-01-04T16:09:47;16.40;62.70
58993;DHT22;44782;0.000;0.000;2023-01-04T16:12:03;16.40;62.70
58993;DHT22;44782;0.000;0.000;2023-01-04T16:14:38;16.40;62.70
58993;DHT22;44782;0.000;0.000;2023-01-04T16:16:54;16.40;62.80
58993;DHT22;44782;0.000;0.000;2023-01-04T16:19:10;16.40;62.70
58993;DHT22;44782;0.000;0.000;2023-01-04T16:21:27;16.40;62.80
58993;DHT22;44782;0.000;0.000;2023-01-04T16:23:42;16.40;62.80
58993;DHT22;44782;0.000;0.000;2023-01-04T16:26:12;16.40;62.80
58993;DHT22;44782;0.000;0.000;2023-01-04T16:28:28;16.40;62.80
58993;DHT22;44782;0.000;0.000;2023-01-04T16:30:43;16.40;62.80
58993;DHT22;44782;0.000;0.000;2023-01-04T16:32:59;16.40;62.80
58993;DHT22;44782;0.000;0.000;2023-01-04T16:35:15;16.40;62.80